Time;durP1;ratioP1;P1;durP2;ratioP2;P2;SDS_P1;SDS_P2;PMS_P1;PMS_P2;Temp;Humidity;BMP_temperature;BMP_pressure;BME280_temperature;BME280_humidity;BME280_pressure;Samples;Min_cycle;Max_cycle;Signal;HPM_P1;HPM_P2
2022/08/07 00:02:01;;;;;;;5.45;2.72;;;;;;;13.18;95.80;102499.41;5217461;28;20033;-68
2022/08/07 00:04:32;;;;;;;7.72;2.80;;;;;;;13.21;97.08;102495.69;5198482;28;20034;-68
2022/08/07 00:07:03;;;;;;;7.18;3.00;;;;;;;13.14;97.05;102498.75;5203038;28;20033;-68
2022/08/07 00:09:35;;;;;;;7.47;3.28;;;;;;;13.11;96.82;102495.38;5208965;28;20030;-68
2022/08/07 00:12:06;;;;;;;5.88;2.88;;;;;;;13.04;95.80;102497.59;5225502;28;20045;-68
2022/08/07 00:14:37;;;;;;;8.15;3.40;;;;;;;12.99;96.46;102493.47;5206085;28;20034;-68
2022/08/07 00:17:09;;;;;;;6.78;3.17;;;;;;;12.96;96.04;102486.44;5201735;28;20029;-68
2022/08/07 00:19:41;;;;;;;10.30;3.67;;;;;;;12.89;96.18;102488.66;5204886;28;20038;-68
2022/08/07 00:22:12;;;;;;;5.68;3.47;;;;;;;12.99;99.19;102483.59;5209256;28;20056;-68
2022/08/07 00:24:43;;;;;;;6.60;3.78;;;;;;;12.79;97.17;102481.25;5202585;28;20475;-68
2022/08/07 00:27:15;;;;;;;4.20;3.28;;;;;;;12.75;98.02;102475.19;5224005;28;20042;-68
2022/08/07 00:29:46;;;;;;;7.72;4.03;;;;;;;12.68;97.92;102469.38;5209670;28;20037;-69
2022/08/07 00:32:17;;;;;;;4.95;3.65;;;;;;;12.65;97.66;102466.84;5202030;28;20121;-68
2022/08/07 00:34:49;;;;;;;7.10;3.40;;;;;;;12.62;98.89;102469.75;5201895;28;20478;-68
2022/08/07 00:37:20;;;;;;;5.22;3.85;;;;;;;12.79;100.00;102468.75;5225358;28;20603;-68
2022/08/07 00:39:55;;;;;;;13.93;4.57;;;;;;;12.57;99.74;102463.78;5206707;28;20324;-68
2022/08/07 00:42:26;;;;;;;7.63;4.10;;;;;;;12.56;99.67;102464.75;5224253;28;20078;-68
2022/08/07 00:44:57;;;;;;;6.10;3.90;;;;;;;12.61;100.00;102451.06;5204483;28;20030;-68
2022/08/07 00:47:29;;;;;;;4.45;3.78;;;;;;;12.51;100.00;102466.81;5200048;28;20041;-68
2022/08/07 00:50:01;;;;;;;6.68;4.43;;;;;;;12.48;100.00;102465.19;5204668;28;20517;-68
2022/08/07 00:52:32;;;;;;;7.32;4.25;;;;;;;12.48;100.00;102458.97;5206218;28;20030;-68
2022/08/07 00:55:04;;;;;;;6.45;4.00;;;;;;;12.40;100.00;102455.88;5218269;28;20056;-68
2022/08/07 00:57:36;;;;;;;6.63;4.60;;;;;;;12.30;100.00;102458.22;5208360;28;20037;-68
2022/08/07 01:00:08;;;;;;;6.47;4.15;;;;;;;12.36;100.00;102458.72;5227065;28;20030;-68
2022/08/07 01:02:41;;;;;;;5.80;4.13;;;;;;;12.30;100.00;102451.06;5201517;28;20026;-68
2022/08/07 01:05:13;;;;;;;7.03;4.47;;;;;;;12.41;100.00;102446.91;5204098;28;20038;-68
2022/08/07 01:07:44;;;;;;;6.72;4.30;;;;;;;12.36;100.00;102448.00;5198240;28;20372;-68
2022/08/07 01:10:16;;;;;;;6.43;4.05;;;;;;;12.34;100.00;102444.56;5219166;28;20038;-68
2022/08/07 01:12:48;;;;;;;8.88;4.50;;;;;;;12.39;100.00;102448.78;5230408;28;20324;-68
2022/08/07 01:15:21;;;;;;;8.18;4.70;;;;;;;12.20;100.00;102446.34;5208816;28;20032;-68
2022/08/07 01:17:53;;;;;;;6.40;4.47;;;;;;;12.22;100.00;102445.28;5215621;28;20045;-68
2022/08/07 01:20:31;;;;;;;8.40;4.68;;;;;;;12.14;100.00;102442.22;5203168;28;20029;-68
2022/08/07 01:23:03;;;;;;;7.40;4.40;;;;;;;12.09;100.00;102444.28;5208941;28;20069;-68
2022/08/07 01:25:35;;;;;;;6.15;4.53;;;;;;;12.14;100.00;102435.03;5197826;28;20022;-68
2022/08/07 01:28:07;;;;;;;8.57;4.80;;;;;;;12.04;100.00;102436.53;5204176;28;21304;-67
2022/08/07 01:30:39;;;;;;;8.93;4.88;;;;;;;12.02;100.00;102438.41;5206171;28;20026;-68
2022/08/07 01:33:10;;;;;;;7.10;4.68;;;;;;;12.00;100.00;102436.78;5205085;28;20455;-68
2022/08/07 01:35:42;;;;;;;7.43;5.10;;;;;;;12.03;100.00;102433.94;5205509;28;20030;-68
2022/08/07 01:38:13;;;;;;;6.35;4.55;;;;;;;11.99;100.00;102435.06;5206517;28;20022;-68
2022/08/07 01:40:48;;;;;;;8.70;5.32;;;;;;;11.90;100.00;102428.41;5204660;28;20046;-68
2022/08/07 01:43:19;;;;;;;7.10;4.90;;;;;;;11.85;100.00;102423.28;5225022;28;20383;-68
2022/08/07 01:45:52;;;;;;;6.07;4.82;;;;;;;11.81;100.00;102423.53;5203610;28;20038;-68
2022/08/07 01:48:24;;;;;;;7.85;5.20;;;;;;;11.81;100.00;102421.72;5207005;28;20104;-68
2022/08/07 01:51:01;;;;;;;8.15;5.05;;;;;;;11.73;100.00;102426.66;5206681;28;20087;-68
2022/08/07 01:53:34;;;;;;;7.47;5.20;;;;;;;11.84;100.00;102426.91;5206477;28;20112;-68
2022/08/07 01:56:09;;;;;;;10.00;6.47;;;;;;;11.70;100.00;102437.53;5203201;28;20034;-68
2022/08/07 01:58:48;;;;;;;8.38;5.22;;;;;;;11.72;100.00;102425.78;5213720;28;20296;-68
2022/08/07 02:01:30;;;;;;;9.55;5.85;;;;;;;11.67;100.00;102429.66;5207843;28;20030;-68
2022/08/07 02:04:12;;;;;;;8.68;5.63;;;;;;;11.72;100.00;102431.13;5209736;28;20380;-68
2022/08/07 02:06:44;;;;;;;10.50;5.50;;;;;;;11.67;100.00;102419.81;5203057;28;20033;-68
2022/08/07 02:09:19;;;;;;;9.82;5.60;;;;;;;11.70;100.00;102422.34;5207366;28;20075;-68
2022/08/07 02:11:50;;;;;;;;;;;;;;;11.75;100.00;102425.63;5218898;28;20064;-68
2022/08/07 02:14:25;;;;;;;7.95;5.10;;;;;;;11.63;100.00;102428.13;5236369;28;20299;-68
2022/08/07 02:16:57;;;;;;;9.40;5.20;;;;;;;11.54;100.00;102427.69;5212988;28;20106;-68
2022/08/07 02:19:28;;;;;;;8.38;5.25;;;;;;;11.52;100.00;102432.22;5222568;28;20487;-68
2022/08/07 02:22:00;;;;;;;9.50;5.38;;;;;;;11.48;100.00;102425.34;5200235;28;20025;-68
2022/08/07 02:24:32;;;;;;;7.53;5.30;;;;;;;11.50;100.00;102425.25;5202769;28;20028;-68
2022/08/07 02:27:04;;;;;;;9.45;5.80;;;;;;;11.44;100.00;102421.09;5207790;28;20041;-68
2022/08/07 02:29:36;;;;;;;8.57;5.78;;;;;;;11.43;100.00;102416.72;5214070;28;20025;-68
2022/08/07 02:32:09;;;;;;;11.55;6.10;;;;;;;11.41;100.00;102418.63;5216035;28;20030;-68
2022/08/07 02:34:43;;;;;;;10.18;6.65;;;;;;;11.37;100.00;102417.91;5252811;28;20416;-68
2022/08/07 02:37:14;;;;;;;11.13;5.93;;;;;;;11.36;100.00;102421.53;5222807;28;20034;-68
2022/08/07 02:39:48;;;;;;;7.63;5.70;;;;;;;11.36;100.00;102409.97;5214722;28;21356;-67
2022/08/07 02:42:19;;;;;;;8.35;5.75;;;;;;;11.32;100.00;102413.78;5206834;28;20449;-68
2022/08/07 02:44:52;;;;;;;9.13;6.40;;;;;;;11.29;100.00;102412.09;5211397;28;20044;-68
2022/08/07 02:47:25;;;;;;;9.60;5.93;;;;;;;11.26;100.00;102408.78;5221551;28;20322;-68
2022/08/07 02:49:57;;;;;;;9.88;6.32;;;;;;;11.25;100.00;102418.56;5217943;28;20030;-68
2022/08/07 02:52:45;;;;;;;10.38;6.30;;;;;;;11.25;100.00;102407.88;5208707;28;20050;-68
2022/08/07 02:55:25;;;;;;;9.90;6.38;;;;;;;11.25;100.00;102407.03;5206636;28;20414;-68
2022/08/07 02:58:02;;;;;;;8.70;6.13;;;;;;;11.15;100.00;102402.19;5221377;28;20087;-68
2022/08/07 03:00:35;;;;;;;9.73;6.57;;;;;;;11.16;100.00;102397.69;5208426;28;20625;-68
2022/08/07 03:03:08;;;;;;;7.40;6.05;;;;;;;11.12;100.00;102399.69;5211220;28;20029;-68
2022/08/07 03:05:40;;;;;;;8.77;6.05;;;;;;;11.11;100.00;102403.28;5201244;28;20049;-68
2022/08/07 03:08:11;;;;;;;10.32;6.43;;;;;;;11.19;100.00;102395.72;5209202;28;20034;-68
2022/08/07 03:10:45;;;;;;;10.45;6.80;;;;;;;11.14;100.00;102403.13;5220107;28;20041;-68
2022/08/07 03:13:17;;;;;;;9.32;6.32;;;;;;;11.21;100.00;102398.31;5202989;28;20133;-68
2022/08/07 03:15:50;;;;;;;10.35;6.47;;;;;;;11.09;100.00;102399.84;5226901;28;20033;-68
2022/08/07 03:18:21;;;;;;;9.95;6.20;;;;;;;11.08;100.00;102400.78;5209484;28;20122;-68
2022/08/07 03:20:53;;;;;;;11.30;6.32;;;;;;;11.07;100.00;102407.06;5201557;28;20083;-68
2022/08/07 03:23:26;;;;;;;11.60;7.22;;;;;;;11.13;100.00;102398.72;5206967;28;20029;-68
2022/08/07 03:26:00;;;;;;;10.30;6.38;;;;;;;11.02;100.00;102400.25;5213698;28;20042;-68
2022/08/07 03:28:34;;;;;;;14.85;6.78;;;;;;;11.01;100.00;102401.19;5212356;28;20038;-68
2022/08/07 03:31:17;;;;;;;8.98;6.35;;;;;;;11.05;100.00;102400.97;5212721;28;20024;-68
2022/08/07 03:33:53;;;;;;;8.68;6.55;;;;;;;10.91;100.00;102400.81;5205425;28;20022;-68
2022/08/07 03:36:26;;;;;;;10.13;6.65;;;;;;;10.95;100.00;102397.06;5222438;28;20095;-68
2022/08/07 03:39:03;;;;;;;11.50;7.35;;;;;;;10.92;100.00;102397.22;5211914;28;20148;-67
2022/08/07 03:41:36;;;;;;;10.63;6.85;;;;;;;10.95;100.00;102384.56;5216191;28;20049;-68
2022/08/07 03:44:07;;;;;;;8.88;6.55;;;;;;;10.90;100.00;102393.75;5212532;28;20152;-68
2022/08/07 03:46:40;;;;;;;16.83;7.05;;;;;;;10.86;100.00;102401.06;5218896;28;20471;-68
2022/08/07 03:49:12;;;;;;;9.75;6.53;;;;;;;10.88;100.00;102392.97;5211688;28;20041;-68
2022/08/07 03:51:43;;;;;;;9.13;6.68;;;;;;;10.88;100.00;102401.84;5207115;28;20021;-68
2022/08/07 03:54:15;;;;;;;8.80;6.90;;;;;;;10.99;100.00;102403.97;5204820;28;20479;-68
2022/08/07 03:56:46;;;;;;;10.15;7.03;;;;;;;10.91;100.00;102406.16;5214276;28;20049;-68
2022/08/07 03:59:18;;;;;;;9.80;6.63;;;;;;;10.82;100.00;102406.66;5215247;28;20505;-68
2022/08/07 04:01:53;;;;;;;10.30;6.43;;;;;;;10.82;100.00;102412.84;5206699;28;20026;-68
2022/08/07 04:04:24;;;;;;;9.52;6.57;;;;;;;10.75;100.00;102414.97;5203581;28;20406;-68
2022/08/07 04:06:56;;;;;;;9.23;6.68;;;;;;;10.82;100.00;102407.53;5209943;28;20072;-68
2022/08/07 04:09:28;;;;;;;9.30;6.80;;;;;;;10.79;100.00;102419.19;5202600;28;20030;-68
2022/08/07 04:11:59;;;;;;;9.75;7.18;;;;;;;10.81;100.00;102420.94;5202630;28;20072;-68
2022/08/07 04:14:33;;;;;;;9.98;6.78;;;;;;;10.85;100.00;102422.50;5227713;28;20029;-68
2022/08/07 04:17:04;;;;;;;9.18;6.93;;;;;;;10.74;100.00;102413.25;5220919;28;20030;-67
2022/08/07 04:19:40;;;;;;;9.13;6.55;;;;;;;10.73;100.00;102424.88;5206167;28;20045;-68
2022/08/07 04:22:11;;;;;;;9.43;7.05;;;;;;;10.70;100.00;102417.03;5206000;28;20079;-68
2022/08/07 04:24:44;;;;;;;9.93;6.88;;;;;;;10.68;100.00;102416.25;5205674;28;21574;-68
2022/08/07 04:27:16;;;;;;;11.35;7.40;;;;;;;10.66;100.00;102423.47;5212198;28;21374;-68
2022/08/07 04:29:47;;;;;;;10.00;6.93;;;;;;;10.64;100.00;102414.66;5211906;28;20503;-68
2022/08/07 04:32:18;;;;;;;10.73;6.80;;;;;;;10.62;100.00;102421.88;5206951;28;20063;-68
2022/08/07 04:34:51;;;;;;;12.85;7.47;;;;;;;10.57;100.00;102431.94;5206635;28;20029;-68
2022/08/07 04:37:22;;;;;;;14.23;7.70;;;;;;;10.55;100.00;102429.34;5210237;28;20026;-68
2022/08/07 04:39:53;;;;;;;11.70;7.35;;;;;;;10.61;100.00;102424.66;5212241;28;20082;-68
2022/08/07 04:42:28;;;;;;;14.75;7.35;;;;;;;10.57;100.00;102426.63;5214151;28;20091;-68
2022/08/07 04:45:01;;;;;;;15.48;7.50;;;;;;;10.65;100.00;102421.75;5212351;28;21478;-68
2022/08/07 04:47:45;;;;;;;11.33;7.47;;;;;;;10.58;100.00;102420.31;5207436;28;20056;-68
2022/08/07 04:50:35;;;;;;;14.23;7.28;;;;;;;10.60;100.00;102429.09;5217561;28;20375;-68
2022/08/07 04:53:17;;;;;;;11.93;7.35;;;;;;;10.61;100.00;102432.66;5205653;28;21287;-68
2022/08/07 04:55:48;;;;;;;13.45;7.80;;;;;;;10.64;100.00;102432.50;5210915;28;20059;-68
2022/08/07 04:58:25;;;;;;;11.98;7.28;;;;;;;10.64;100.00;102436.00;5205176;28;20116;-68
2022/08/07 05:01:19;;;;;;;14.70;7.68;;;;;;;10.67;100.00;102422.53;5201128;28;20481;-68
2022/08/07 05:03:51;;;;;;;12.50;7.18;;;;;;;10.70;100.00;102427.72;5197938;28;20041;-68
2022/08/07 05:06:27;;;;;;;14.30;7.93;;;;;;;10.72;100.00;102436.50;5205998;28;20536;-68
2022/08/07 05:09:09;;;;;;;10.90;7.63;;;;;;;10.77;100.00;102436.25;5203209;28;20037;-68
2022/08/07 05:11:47;;;;;;;11.48;7.72;;;;;;;10.82;100.00;102428.88;5205874;28;20030;-68
2022/08/07 05:14:25;;;;;;;12.15;8.57;;;;;;;10.84;100.00;102436.81;5199928;28;20182;-68
2022/08/07 05:16:59;;;;;;;9.27;7.47;;;;;;;10.93;100.00;102442.53;5199530;28;20025;-68
2022/08/07 05:19:34;;;;;;;;;;;;;;;10.94;100.00;102441.56;5201976;28;20687;-68
2022/08/07 05:22:08;;;;;;;11.80;7.55;;;;;;;10.97;100.00;102446.78;5201453;28;19993;-68
2022/08/07 05:24:40;;;;;;;;;;;;;;;11.02;100.00;102443.84;5204280;28;20036;-68
2022/08/07 05:27:15;;;;;;;9.95;7.03;;;;;;;11.07;100.00;102441.81;5205020;28;19917;-68
2022/08/07 05:29:48;;;;;;;10.63;7.03;;;;;;;11.13;100.00;102445.97;5206350;28;20108;-67
2022/08/07 05:32:23;;;;;;;10.75;7.43;;;;;;;11.23;100.00;102446.31;5200684;28;20030;-68
2022/08/07 05:34:56;;;;;;;10.32;7.78;;;;;;;11.27;100.00;102450.56;5202456;28;20037;-68
2022/08/07 05:37:29;;;;;;;13.57;8.90;;;;;;;11.34;100.00;102458.16;5204476;28;20677;-68
2022/08/07 05:40:01;;;;;;;13.90;8.25;;;;;;;11.41;100.00;102456.03;5201808;28;20049;-68
2022/08/07 05:42:34;;;;;;;12.48;7.50;;;;;;;11.49;100.00;102456.47;5205203;28;20246;-68
2022/08/07 05:45:06;;;;;;;10.82;7.95;;;;;;;11.57;100.00;102453.38;5201850;28;20026;-68
2022/08/07 05:47:37;;;;;;;11.27;8.02;;;;;;;11.69;100.00;102451.84;5204532;28;20048;-68
2022/08/07 05:50:09;;;;;;;11.13;8.45;;;;;;;11.74;100.00;102447.09;5209149;28;20507;-68
2022/08/07 05:52:40;;;;;;;12.02;8.32;;;;;;;11.85;100.00;102452.72;5205689;28;20475;-68
2022/08/07 05:55:12;;;;;;;10.38;7.53;;;;;;;11.92;100.00;102443.41;5203585;28;20341;-68
2022/08/07 05:57:45;;;;;;;11.40;8.45;;;;;;;11.99;100.00;102448.44;5202053;28;20061;-67
2022/08/07 06:00:16;;;;;;;12.05;8.43;;;;;;;12.09;100.00;102458.50;5201801;28;20038;-67
2022/08/07 06:02:50;;;;;;;13.00;8.57;;;;;;;12.13;100.00;102446.66;5203162;28;20139;-67
2022/08/07 06:05:25;;;;;;;11.07;8.25;;;;;;;12.16;100.00;102459.03;5206309;28;20094;-67
2022/08/07 06:08:01;;;;;;;10.23;8.50;;;;;;;12.20;100.00;102457.06;5206941;28;20034;-67
2022/08/07 06:10:32;;;;;;;10.88;7.72;;;;;;;12.23;100.00;102456.84;5203615;28;20057;-67
2022/08/07 06:13:04;;;;;;;10.63;8.05;;;;;;;12.33;100.00;102458.91;5207350;28;20038;-68
2022/08/07 06:15:38;;;;;;;11.98;8.57;;;;;;;12.38;100.00;102452.44;5206754;28;20040;-68
2022/08/07 06:18:12;;;;;;;13.32;9.80;;;;;;;12.42;100.00;102454.81;5201804;28;20136;-68
2022/08/07 06:20:44;;;;;;;12.18;8.15;;;;;;;12.52;100.00;102460.50;5204933;28;20113;-68
2022/08/07 06:23:15;;;;;;;10.88;8.07;;;;;;;12.63;100.00;102454.53;5209597;28;20360;-68
2022/08/07 06:25:47;;;;;;;11.20;8.07;;;;;;;12.62;100.00;102467.06;5207684;28;20033;-68
2022/08/07 06:28:19;;;;;;;14.07;9.10;;;;;;;12.71;100.00;102455.81;5206986;28;20069;-68
2022/08/07 06:30:50;;;;;;;11.60;8.55;;;;;;;12.82;100.00;102462.31;5208638;28;20037;-68
2022/08/07 06:33:23;;;;;;;13.45;9.25;;;;;;;12.86;100.00;102459.34;5206000;28;20025;-68
2022/08/07 06:35:54;;;;;;;12.90;9.20;;;;;;;12.99;100.00;102462.16;5206035;28;20593;-68
2022/08/07 06:38:25;;;;;;;14.10;9.27;;;;;;;13.13;100.00;102459.50;5207052;28;20033;-68
2022/08/07 06:41:00;;;;;;;14.52;9.95;;;;;;;13.21;100.00;102460.84;5206194;28;20053;-69
2022/08/07 06:43:34;;;;;;;11.43;9.70;;;;;;;13.27;100.00;102463.13;5206170;28;20042;-69
2022/08/07 06:46:06;;;;;;;;;;;;;;;13.27;100.00;102461.34;5201074;28;20041;-68
2022/08/07 06:48:38;;;;;;;12.95;9.68;;;;;;;13.43;100.00;102455.03;5207496;28;19956;-68
2022/08/07 06:51:15;;;;;;;12.15;9.90;;;;;;;13.42;100.00;102456.00;5205329;28;20053;-68
2022/08/07 06:53:47;;;;;;;14.52;10.20;;;;;;;13.62;100.00;102452.06;5208924;28;20499;-69
2022/08/07 06:56:38;;;;;;;14.05;9.80;;;;;;;13.78;100.00;102450.09;5208781;28;20103;-68
2022/08/07 06:59:12;;;;;;;11.85;8.48;;;;;;;13.90;99.07;102449.34;5200590;28;20079;-68
2022/08/07 07:01:45;;;;;;;11.93;9.07;;;;;;;14.05;99.76;102439.38;5204602;28;20077;-68
2022/08/07 07:04:17;;;;;;;15.10;9.35;;;;;;;14.11;98.97;102435.44;5200854;28;20068;-68
2022/08/07 07:06:49;;;;;;;13.18;8.80;;;;;;;14.23;97.22;102437.34;5202047;28;20466;-69
2022/08/07 07:09:27;;;;;;;13.43;9.80;;;;;;;14.40;96.63;102443.38;5204947;28;20745;-68
2022/08/07 07:12:05;;;;;;;13.00;8.95;;;;;;;14.52;96.14;102442.56;5208367;28;20124;-68
2022/08/07 07:15:00;;;;;;;11.95;8.80;;;;;;;14.58;96.22;102458.31;5204714;28;20134;-68
2022/08/07 07:17:40;;;;;;;12.43;9.45;;;;;;;14.73;94.74;102455.53;5205196;28;20037;-68
2022/08/07 07:20:22;;;;;;;11.23;8.88;;;;;;;14.94;94.07;102461.25;5206695;28;20037;-68
2022/08/07 07:22:54;;;;;;;11.07;8.65;;;;;;;15.01;90.96;102459.84;5206082;28;20040;-68
2022/08/07 07:25:26;;;;;;;11.98;9.15;;;;;;;15.09;89.84;102453.00;5207188;28;20041;-69
2022/08/07 07:28:04;;;;;;;12.88;9.10;;;;;;;15.14;90.44;102449.13;5203508;28;20021;-69
2022/08/07 07:30:37;;;;;;;11.43;8.75;;;;;;;15.28;90.81;102447.19;5207492;28;20033;-69
2022/08/07 07:33:11;;;;;;;13.32;9.20;;;;;;;15.31;90.26;102448.78;5203566;28;20034;-69
2022/08/07 07:35:46;;;;;;;13.82;9.05;;;;;;;15.55;90.83;102446.19;5205479;28;20038;-68
2022/08/07 07:38:21;;;;;;;13.48;8.57;;;;;;;15.54;89.15;102448.97;5207753;28;20065;-69
2022/08/07 07:40:59;;;;;;;10.90;8.50;;;;;;;15.75;88.96;102449.28;5203920;28;20054;-69
2022/08/07 07:43:32;;;;;;;11.25;7.70;;;;;;;15.89;87.64;102443.72;5204652;28;20117;-69
2022/08/07 07:46:06;;;;;;;10.27;7.20;;;;;;;15.88;84.56;102432.13;5204479;28;20529;-69
2022/08/07 07:48:39;;;;;;;10.80;6.88;;;;;;;16.11;86.06;102434.94;5205121;28;20554;-69
2022/08/07 07:51:12;;;;;;;10.25;7.03;;;;;;;16.15;82.88;102432.88;5212150;28;20024;-69
2022/08/07 07:53:46;;;;;;;8.18;5.90;;;;;;;16.41;83.25;102429.06;5202499;28;20034;-69
2022/08/07 07:56:18;;;;;;;7.93;6.60;;;;;;;16.43;82.76;102426.25;5206584;28;20033;-69
2022/08/07 07:58:50;;;;;;;8.30;6.15;;;;;;;16.62;81.33;102423.00;5205170;28;20026;-69
2022/08/07 08:01:24;;;;;;;11.20;6.68;;;;;;;16.81;81.76;102425.13;5209473;28;20074;-69
2022/08/07 08:04:01;;;;;;;8.20;6.05;;;;;;;16.96;79.86;102425.81;5205027;28;20484;-69
2022/08/07 08:06:33;;;;;;;10.85;7.10;;;;;;;17.14;80.36;102431.56;5198387;28;20030;-68
2022/08/07 08:09:07;;;;;;;9.88;6.28;;;;;;;17.12;77.69;102426.31;5200657;28;20048;-67
2022/08/07 08:11:38;;;;;;;10.40;6.03;;;;;;;17.22;77.97;102434.53;5209065;28;20052;-68
2022/08/07 08:14:10;;;;;;;9.32;5.72;;;;;;;17.35;78.14;102432.56;5211741;28;20030;-68
2022/08/07 08:16:43;;;;;;;7.97;5.57;;;;;;;17.33;78.14;102425.59;5210878;28;20040;-68
2022/08/07 08:19:18;;;;;;;7.90;5.40;;;;;;;17.41;77.54;102428.50;5207419;28;20631;-68
2022/08/07 08:27:36;;;;;;;11.32;5.18;;;;;;;17.75;74.97;102429.34;5207348;28;20387;-67
2022/08/07 08:30:10;;;;;;;8.40;5.18;;;;;;;17.79;73.73;102433.50;5206764;28;20125;-67
2022/08/07 08:32:52;;;;;;;9.57;6.15;;;;;;;17.99;75.07;102431.06;5208990;28;20117;-67
2022/08/07 08:35:26;;;;;;;6.75;4.68;;;;;;;18.08;72.36;102432.97;5212606;28;20021;-68
2022/08/07 08:38:01;;;;;;;7.82;4.60;;;;;;;18.16;73.28;102435.91;5212194;28;20448;-67
2022/08/07 08:40:43;;;;;;;7.20;3.40;;;;;;;18.43;69.36;102434.56;5209714;28;20403;-68
2022/08/07 08:43:34;;;;;;;5.57;3.80;;;;;;;18.51;69.76;102434.78;5207017;28;20034;-67
2022/08/07 08:46:15;;;;;;;6.53;3.95;;;;;;;18.54;68.32;102437.22;5205212;28;20511;-68
2022/08/07 08:49:00;;;;;;;7.32;3.95;;;;;;;18.60;69.82;102435.81;5202365;28;20428;-68
2022/08/07 08:51:44;;;;;;;6.25;4.13;;;;;;;18.60;69.32;102435.81;5209903;28;20038;-68
2022/08/07 08:54:31;;;;;;;6.47;3.90;;;;;;;18.75;69.32;102426.38;5210182;28;20030;-67
2022/08/07 08:57:18;;;;;;;7.78;4.10;;;;;;;18.86;69.49;102435.47;5203936;28;20095;-68
2022/08/07 08:59:55;;;;;;;5.90;3.60;;;;;;;18.93;68.50;102437.50;5209706;28;20026;-67
2022/08/07 09:02:54;;;;;;;5.55;3.03;;;;;;;18.94;65.68;102438.34;5207894;28;20426;-67
2022/08/07 09:05:46;;;;;;;6.50;3.53;;;;;;;18.97;65.03;102440.81;5201914;28;20040;-67
2022/08/07 09:08:28;;;;;;;4.57;2.97;;;;;;;19.23;64.92;102429.53;5202340;28;20026;-69
2022/08/07 09:11:17;;;;;;;5.88;3.35;;;;;;;19.18;64.08;102427.25;5204431;28;20602;-69
2022/08/07 09:14:02;;;;;;;5.32;3.45;;;;;;;19.22;63.63;102423.28;5205102;28;20057;-69
2022/08/07 09:16:46;;;;;;;5.43;3.20;;;;;;;19.30;63.52;102426.16;5207787;28;20108;-69
2022/08/07 09:19:56;;;;;;;5.57;3.17;;;;;;;19.28;63.15;102432.69;5206581;28;20061;-68
2022/08/07 09:22:36;;;;;;;5.78;3.15;;;;;;;19.27;63.12;102423.72;5202999;28;20391;-69
2022/08/07 09:25:11;;;;;;;6.45;2.80;;;;;;;19.14;63.39;102421.25;5207961;28;20030;-69
2022/08/07 09:27:56;;;;;;;6.97;3.97;;;;;;;19.42;63.09;102420.63;5202049;28;20380;-68
2022/08/07 09:30:44;;;;;;;8.63;3.67;;;;;;;19.40;59.30;102426.19;5209414;28;20115;-70
2022/08/07 09:33:40;;;;;;;6.75;3.35;;;;;;;19.38;59.79;102422.75;5210009;28;20389;-68
2022/08/07 09:37:00;;;;;;;4.88;3.45;;;;;;;19.36;62.27;102414.78;5209273;28;20048;-68
2022/08/07 09:39:45;;;;;;;6.35;3.67;;;;;;;19.44;60.92;102418.66;5212458;28;20052;-69
2022/08/07 09:42:45;;;;;;;;;;;;;;;19.52;58.57;102410.69;5205545;28;20037;-68
2022/08/07 09:45:22;;;;;;;4.22;2.30;;;;;;;19.89;58.03;102407.41;5207174;28;19917;-68
2022/08/07 09:48:25;;;;;;;6.47;2.47;;;;;;;20.01;58.86;102403.56;5203909;28;20041;-69
2022/08/07 09:51:12;;;;;;;5.35;1.83;;;;;;;20.20;56.27;102405.41;5206719;28;20074;-69
2022/08/07 09:53:47;;;;;;;5.65;2.42;;;;;;;20.33;57.70;102394.31;5207353;28;20026;-68
2022/08/07 09:56:43;;;;;;;5.13;3.30;;;;;;;20.34;59.65;102394.13;5205999;28;20081;-70
2022/08/07 09:59:41;;;;;;;6.60;3.30;;;;;;;20.25;57.81;102394.13;5206780;28;20067;-67
2022/08/07 10:02:18;;;;;;;4.75;2.90;;;;;;;20.39;58.13;102388.28;5207209;28;20466;-68
2022/08/07 10:04:58;;;;;;;6.65;2.67;;;;;;;20.63;58.86;102387.00;5206952;28;20026;-69
2022/08/07 10:07:56;;;;;;;4.38;2.88;;;;;;;20.58;57.20;102379.28;5203022;28;20095;-68
2022/08/07 10:10:43;;;;;;;4.35;2.55;;;;;;;20.53;55.31;102374.28;5201383;28;20704;-69
2022/08/07 10:13:25;;;;;;;5.80;2.67;;;;;;;20.50;55.43;102369.16;5204285;28;20136;-69
2022/08/07 10:16:09;;;;;;;5.10;2.92;;;;;;;20.39;54.63;102363.91;5203247;28;20482;-69
2022/08/07 10:18:49;;;;;;;3.75;2.53;;;;;;;20.33;53.45;102361.78;5207029;28;20087;-69
2022/08/07 10:21:40;;;;;;;4.57;2.67;;;;;;;20.49;54.99;102367.44;5210439;28;20056;-68
2022/08/07 10:24:44;;;;;;;5.05;2.72;;;;;;;20.69;54.40;102376.44;5205710;28;20117;-68
2022/08/07 10:27:48;;;;;;;5.37;2.53;;;;;;;20.62;55.80;102374.47;5198307;28;20608;-68
2022/08/07 10:30:35;;;;;;;5.70;2.78;;;;;;;20.63;53.45;102374.28;5207823;28;20038;-67
2022/08/07 10:33:28;;;;;;;4.70;2.83;;;;;;;20.49;54.42;102362.00;5204464;28;20504;-69
2022/08/07 10:36:28;;;;;;;4.63;2.75;;;;;;;20.54;55.45;102367.88;5205294;28;20037;-68
2022/08/07 10:39:22;;;;;;;4.63;2.78;;;;;;;20.40;52.88;102359.31;5205665;28;20042;-68
2022/08/07 10:42:13;;;;;;;4.55;2.70;;;;;;;20.42;55.24;102358.16;5204708;28;20047;-68
2022/08/07 10:45:22;;;;;;;5.63;2.88;;;;;;;20.64;54.96;102361.59;5206978;28;20030;-67
2022/08/07 10:48:24;;;;;;;5.15;2.60;;;;;;;20.72;53.07;102359.84;5205948;28;20037;-68
2022/08/07 10:51:09;;;;;;;5.82;2.30;;;;;;;20.86;54.36;102347.66;5211882;28;20037;-68
2022/08/07 10:54:02;;;;;;;4.68;2.17;;;;;;;20.89;52.74;102344.66;5210531;28;20167;-68
2022/08/07 10:56:52;;;;;;;3.95;2.30;;;;;;;20.97;52.60;102343.06;5209060;28;20030;-68
2022/08/07 10:59:51;;;;;;;5.88;2.38;;;;;;;21.01;53.72;102347.19;5206455;28;20038;-68
2022/08/07 11:02:36;;;;;;;4.45;2.53;;;;;;;21.18;50.65;102349.09;5207215;28;20387;-67
2022/08/07 11:05:41;;;;;;;4.03;2.20;;;;;;;21.14;51.38;102342.28;5204373;28;20073;-68
2022/08/07 11:08:24;;;;;;;;;;;;;;;21.18;50.59;102332.81;5205064;28;20117;-68
2022/08/07 11:11:15;;;;;;;6.18;2.05;;;;;;;21.21;50.93;102321.66;5203495;28;20387;-68
2022/08/07 11:14:05;;;;;;;3.33;2.15;;;;;;;21.28;50.14;102321.91;5201406;28;20037;-68
2022/08/07 11:16:44;;;;;;;4.18;2.15;;;;;;;21.30;47.07;102325.31;5208597;28;20061;-68
2022/08/07 11:19:23;;;;;;;5.53;2.00;;;;;;;21.39;48.07;102320.84;5209323;28;20073;-68
2022/08/07 11:22:16;;;;;;;4.15;1.80;;;;;;;21.46;48.51;102322.00;5203794;28;20059;-71
2022/08/07 11:25:15;;;;;;;3.92;2.05;;;;;;;21.41;48.38;102316.13;5205285;28;20163;-69
2022/08/07 11:28:02;;;;;;;3.88;1.70;;;;;;;21.75;45.72;102308.19;5208386;28;20033;-69
2022/08/07 11:31:11;;;;;;;4.45;2.08;;;;;;;21.71;48.69;102307.63;5200570;28;20036;-69
2022/08/07 11:34:01;;;;;;;3.58;1.80;;;;;;;21.77;48.84;102300.72;5210594;28;20045;-71
2022/08/07 11:36:55;;;;;;;4.05;1.83;;;;;;;21.81;45.80;102310.28;5210873;28;20041;-69
2022/08/07 11:39:45;;;;;;;6.15;2.15;;;;;;;21.66;45.01;102299.09;5211248;28;20038;-70
2022/08/07 11:42:24;;;;;;;4.60;2.10;;;;;;;22.00;47.12;102295.66;5205580;28;20111;-69
2022/08/07 11:45:25;;;;;;;2.95;1.70;;;;;;;21.96;46.46;102299.72;5212836;28;20034;-70
2022/08/07 11:48:07;;;;;;;4.38;1.88;;;;;;;21.98;46.31;102289.53;5194244;28;20046;-71
2022/08/07 11:51:05;;;;;;;4.63;2.10;;;;;;;22.00;46.44;102298.38;5209292;28;20372;-70
2022/08/07 11:53:39;;;;;;;3.05;1.80;;;;;;;22.16;45.92;102302.25;5210328;28;20034;-69
2022/08/07 11:56:20;;;;;;;4.18;1.83;;;;;;;22.05;45.02;102301.50;5208078;28;20033;-68
2022/08/07 11:59:16;;;;;;;3.83;1.98;;;;;;;21.99;47.63;102306.69;5210008;28;20065;-70
2022/08/07 12:02:05;;;;;;;3.83;2.30;;;;;;;22.05;49.22;102282.47;5204327;28;20030;-68
2022/08/07 12:04:58;;;;;;;3.22;1.88;;;;;;;22.40;45.54;102286.13;5211495;28;20091;-68
2022/08/07 12:07:34;;;;;;;4.25;2.10;;;;;;;22.50;45.61;102286.88;5223960;28;20057;-70
2022/08/07 12:10:23;;;;;;;4.55;2.00;;;;;;;22.64;46.73;102288.13;5206967;28;20602;-70
2022/08/07 12:13:21;;;;;;;4.32;2.10;;;;;;;22.61;45.49;102288.47;5205982;28;20042;-69
2022/08/07 12:16:05;;;;;;;3.35;1.80;;;;;;;22.47;46.38;102287.19;5216080;28;20129;-68